createdAt,value
2019-01-17T00:00:28.622Z,3.72
2019-01-17T00:01:38.662Z,3.64
2019-01-17T00:02:48.728Z,3.75
2019-01-17T00:03:58.865Z,3.72
2019-01-17T00:05:08.943Z,3.64
2019-01-17T00:06:18.986Z,3.67
2019-01-17T00:07:29.044Z,3.64
2019-01-17T00:08:39.091Z,3.64
2019-01-17T00:09:49.147Z,3.64
2019-01-17T00:10:59.213Z,3.67
2019-01-17T00:12:10.660Z,3.61
2019-01-17T00:13:20.707Z,3.63
2019-01-17T00:14:30.756Z,3.67
2019-01-17T00:15:40.541Z,3.63
2019-01-17T00:16:50.589Z,3.63
2019-01-17T00:18:03.186Z,3.63
2019-01-17T00:19:12.985Z,3.53
2019-01-17T00:20:23.043Z,3.58
2019-01-17T00:21:33.098Z,3.54
2019-01-17T00:22:42.637Z,3.53
2019-01-17T00:23:52.190Z,3.57
2019-01-17T00:25:08.015Z,3.56
2019-01-17T00:26:18.050Z,3.51
2019-01-17T00:27:27.871Z,3.49
2019-01-17T00:28:37.910Z,3.51
2019-01-17T00:29:47.957Z,3.51
2019-01-17T00:30:57.756Z,3.56
2019-01-17T00:32:07.587Z,3.54
2019-01-17T00:33:17.696Z,3.49
2019-01-17T00:34:27.749Z,3.64
2019-01-17T00:35:37.283Z,3.51
2019-01-17T00:36:47.330Z,3.53
2019-01-17T00:37:57.379Z,3.53
2019-01-17T00:39:07.580Z,3.51
2019-01-17T00:40:17.355Z,3.48
2019-01-17T00:41:27.153Z,3.54
2019-01-17T00:42:37.234Z,3.54
2019-01-17T00:43:47.344Z,3.49
2019-01-17T00:44:57.451Z,3.51
2019-01-17T00:46:07.278Z,3.57
2019-01-17T00:47:17.071Z,3.48
2019-01-17T00:48:26.881Z,3.53
2019-01-17T00:49:37.696Z,3.56
2019-01-17T00:50:47.786Z,3.56
2019-01-17T00:51:57.911Z,3.53
2019-01-17T00:53:07.817Z,3.54
2019-01-17T00:54:17.356Z,3.42
2019-01-17T00:55:27.806Z,3.54
2019-01-17T00:56:37.973Z,3.48
2019-01-17T00:57:48.020Z,3.4
2019-01-17T00:58:57.816Z,3.43
2019-01-17T01:00:11.324Z,3.42
2019-01-17T01:01:21.157Z,3.4
2019-01-17T01:02:31.251Z,3.39
2019-01-17T01:03:41.280Z,3.39
2019-01-17T01:04:51.058Z,3.26
2019-01-17T01:06:01.114Z,3.24
2019-01-17T01:07:11.179Z,3.24
2019-01-17T01:08:20.750Z,3.16
2019-01-17T01:09:30.612Z,3.13
2019-01-17T01:10:40.645Z,3.16
2019-01-17T01:11:50.752Z,3.16
2019-01-17T01:13:00.798Z,3.14
2019-01-17T01:14:10.877Z,3.14
2019-01-17T01:15:20.931Z,3.09
2019-01-17T01:16:30.966Z,3.16
2019-01-17T01:17:41.014Z,3.13
2019-01-17T01:18:51.066Z,3.11
2019-01-17T01:20:00.898Z,3.08
2019-01-17T01:21:10.694Z,3.05
2019-01-17T01:22:20.478Z,3.03
2019-01-17T01:23:30.527Z,2.95
2019-01-17T01:24:40.567Z,2.96
2019-01-17T01:25:50.681Z,2.93
2019-01-17T01:27:00.716Z,2.87
2019-01-17T01:28:10.761Z,2.85
2019-01-17T01:29:20.554Z,2.96
2019-01-17T01:30:30.628Z,2.93
2019-01-17T01:31:40.720Z,2.81
2019-01-17T01:32:50.779Z,2.72
2019-01-17T01:34:00.560Z,2.77
2019-01-17T01:35:10.609Z,2.81
2019-01-17T01:36:20.396Z,2.77
2019-01-17T01:37:30.554Z,2.78
2019-01-17T01:38:40.595Z,2.76
2019-01-17T01:39:49.883Z,2.76
2019-01-17T01:40:59.937Z,2.81
2019-01-17T01:42:10.012Z,2.8
2019-01-17T01:43:20.051Z,2.77
2019-01-17T01:44:30.090Z,2.95
2019-01-17T01:45:40.202Z,2.78
2019-01-17T01:46:50.008Z,2.77
2019-01-17T01:48:00.048Z,2.91
2019-01-17T01:49:10.168Z,2.88
2019-01-17T01:50:19.956Z,2.91
2019-01-17T01:51:30.002Z,2.9
2019-01-17T01:52:40.054Z,2.93
2019-01-17T01:53:50.218Z,2.98
2019-01-17T01:55:00.329Z,2.91
2019-01-17T01:56:10.371Z,2.98
2019-01-17T01:57:20.429Z,2.95
2019-01-17T01:58:30.486Z,2.93
2019-01-17T01:59:40.562Z,2.76
2019-01-17T02:00:50.682Z,2.81
2019-01-17T02:02:00.453Z,2.77
2019-01-17T02:03:10.510Z,2.72
2019-01-17T02:04:20.298Z,2.73
2019-01-17T02:05:30.349Z,2.72
2019-01-17T02:06:40.411Z,2.7
2019-01-17T02:07:50.453Z,2.78
2019-01-17T02:09:01.505Z,2.83
2019-01-17T02:10:11.555Z,2.83
2019-01-17T02:11:21.614Z,2.85
2019-01-17T02:12:31.398Z,2.85
2019-01-17T02:13:41.201Z,2.9
2019-01-17T02:14:51.290Z,2.88
2019-01-17T02:16:01.319Z,2.99
2019-01-17T02:17:10.889Z,2.99
2019-01-17T02:18:20.944Z,3.01
2019-01-17T02:19:30.980Z,2.98
2019-01-17T02:20:40.821Z,3.08
2019-01-17T02:21:50.858Z,3.09
2019-01-17T02:23:00.896Z,3.03
2019-01-17T02:24:10.730Z,3.08
2019-01-17T02:25:20.773Z,3.16
2019-01-17T02:26:30.554Z,3.17
2019-01-17T02:27:40.362Z,3.16
2019-01-17T02:28:50.409Z,3.11
2019-01-17T02:30:00.472Z,3.14
2019-01-17T02:31:10.268Z,3.08
2019-01-17T02:32:20.078Z,3.09
2019-01-17T02:33:30.128Z,3.09
2019-01-17T02:34:40.237Z,3.09
2019-01-17T02:35:50.282Z,3.13
2019-01-17T02:37:00.088Z,3.16
2019-01-17T02:38:09.883Z,3.24
2019-01-17T02:39:19.932Z,3.26
2019-01-17T02:40:29.724Z,3.23
2019-01-17T02:41:39.832Z,3.26
2019-01-17T02:42:49.873Z,3.29
2019-01-17T02:43:59.921Z,3.27
2019-01-17T02:45:09.972Z,3.24
2019-01-17T02:46:19.793Z,3.3
2019-01-17T02:47:29.622Z,3.24
2019-01-17T02:48:39.671Z,3.24
2019-01-17T02:49:49.449Z,3.26
2019-01-17T02:50:59.528Z,3.29
2019-01-17T02:52:09.583Z,3.24
2019-01-17T02:53:19.629Z,3.39
2019-01-17T02:54:35.663Z,3.39
2019-01-17T02:55:45.578Z,3.39
2019-01-17T02:56:55.399Z,3.43
2019-01-17T02:58:05.580Z,3.46
2019-01-17T02:59:15.629Z,3.43
2019-01-17T03:00:25.845Z,3.43
2019-01-17T03:01:35.953Z,3.4
2019-01-17T03:02:46.014Z,3.46
2019-01-17T03:34:26.725Z,0.5
2019-01-17T03:35:36.654Z,0.47
2019-01-17T03:36:46.707Z,0.38
2019-01-17T03:37:56.776Z,0.37
2019-01-17T03:39:06.827Z,0.41
2019-01-17T03:40:16.884Z,0.48
2019-01-17T03:41:26.431Z,0.57
2019-01-17T03:42:36.487Z,0.69
2019-01-17T03:43:46.539Z,0.82
2019-01-17T03:44:56.618Z,0.9
2019-01-17T03:46:06.430Z,1.03
2019-01-17T03:47:16.219Z,1.17
2019-01-17T03:48:26.025Z,1.35
2019-01-17T03:49:36.069Z,1.44
2019-01-17T03:50:46.124Z,1.65
2019-01-17T03:51:55.917Z,1.64
2019-01-17T03:53:06.314Z,1.74
2019-01-17T03:54:16.366Z,1.86
2019-01-17T03:55:26.425Z,1.94
2019-01-17T03:56:36.472Z,2.05
2019-01-17T03:57:47.339Z,2.18
2019-01-17T03:58:57.387Z,2.18
2019-01-17T04:00:07.952Z,2.3
2019-01-17T04:01:18.358Z,2.36
2019-01-17T04:02:28.450Z,2.48
2019-01-17T04:03:38.553Z,2.52
2019-01-17T04:04:48.617Z,2.62
2019-01-17T04:05:58.714Z,2.73
2019-01-17T04:07:08.839Z,2.7
2019-01-17T04:08:18.902Z,2.81
2019-01-17T04:09:28.997Z,2.88
2019-01-17T04:10:38.870Z,2.85
2019-01-17T04:11:48.912Z,2.9
2019-01-17T04:12:58.957Z,3.01
2019-01-17T04:14:08.766Z,3.03
2019-01-17T04:15:18.857Z,3.08
2019-01-17T04:16:28.900Z,3.11
2019-01-17T04:17:38.939Z,3.13
2019-01-17T04:18:48.976Z,3.13
2019-01-17T04:19:58.787Z,3.11
2019-01-17T04:21:08.889Z,3.2
2019-01-17T04:22:18.686Z,3.16
2019-01-17T04:23:28.740Z,3.26
2019-01-17T04:24:38.798Z,3.26
2019-01-17T04:25:50.257Z,3.3
2019-01-17T04:27:00.425Z,3.39
2019-01-17T04:28:10.482Z,3.3
2019-01-17T04:29:20.566Z,3.4
2019-01-17T04:30:30.361Z,3.34
2019-01-17T04:31:40.428Z,3.4
2019-01-17T04:32:50.516Z,3.37
2019-01-17T04:34:00.578Z,3.42
2019-01-17T04:35:10.369Z,3.26
2019-01-17T04:36:20.424Z,3.3
2019-01-17T04:37:30.483Z,3.35
2019-01-17T04:38:40.531Z,3.27
2019-01-17T04:39:50.561Z,3.39
2019-01-17T04:41:02.313Z,3.32
2019-01-17T04:42:12.353Z,3.34
2019-01-17T04:43:22.392Z,3.3
2019-01-17T04:44:31.939Z,3.2
2019-01-17T04:45:42.046Z,3.21
2019-01-17T04:46:51.578Z,3.21
2019-01-17T04:48:01.638Z,3.23
2019-01-17T04:49:11.789Z,3.17
2019-01-17T04:50:21.959Z,3.3
2019-01-17T04:51:31.749Z,3.3
2019-01-17T04:52:41.874Z,3.39
2019-01-17T04:53:51.951Z,3.35
2019-01-17T04:55:07.864Z,3.37
2019-01-17T04:56:17.990Z,3.37
2019-01-17T04:57:28.030Z,3.46
2019-01-17T04:58:38.085Z,3.43
2019-01-17T04:59:48.143Z,3.48
2019-01-17T05:00:57.927Z,3.48
2019-01-17T05:02:10.922Z,3.56
2019-01-17T05:03:20.690Z,3.58
2019-01-17T05:04:30.532Z,3.49
2019-01-17T05:05:40.326Z,3.61
2019-01-17T05:06:50.114Z,3.63
2019-01-17T05:08:03.227Z,3.67
2019-01-17T05:09:13.280Z,3.69
2019-01-17T05:10:23.339Z,3.64
2019-01-17T05:11:33.385Z,3.64
2019-01-17T05:12:43.446Z,3.69
2019-01-17T05:13:53.241Z,3.64
2019-01-17T05:15:03.310Z,3.6
2019-01-17T05:16:13.343Z,3.67
2019-01-17T05:17:23.396Z,3.61
2019-01-17T05:18:33.447Z,3.64
2019-01-17T05:19:43.503Z,3.67
2019-01-17T05:20:53.563Z,3.66
2019-01-17T05:22:03.621Z,3.67
2019-01-17T05:23:13.685Z,3.71
2019-01-17T05:24:23.747Z,3.66
2019-01-17T05:25:33.859Z,3.69
2019-01-17T05:26:43.923Z,3.69
2019-01-17T05:27:53.754Z,3.66
2019-01-17T05:29:03.820Z,3.71
2019-01-17T05:30:13.863Z,3.75
2019-01-17T05:31:23.674Z,3.72
2019-01-17T05:32:39.199Z,3.71
2019-01-17T05:33:48.990Z,3.71
2019-01-17T05:34:58.763Z,3.71
2019-01-17T05:36:10.806Z,3.72
2019-01-17T05:37:20.867Z,3.72
2019-01-17T05:38:30.666Z,3.64
2019-01-17T05:39:40.710Z,3.71
2019-01-17T05:40:50.762Z,3.63
2019-01-17T05:42:00.801Z,3.71
2019-01-17T05:43:10.886Z,3.69
2019-01-17T05:44:20.691Z,3.58
2019-01-17T05:45:30.735Z,3.72
2019-01-17T05:46:40.767Z,3.75
2019-01-17T05:47:50.541Z,3.72
2019-01-17T05:49:00.643Z,3.67
2019-01-17T05:50:10.681Z,3.74
2019-01-17T05:51:20.734Z,3.69
2019-01-17T05:52:30.764Z,3.84
2019-01-17T05:53:40.563Z,3.81
2019-01-17T05:54:50.363Z,3.78
2019-01-17T05:56:01.271Z,3.84
2019-01-17T05:57:11.064Z,3.85
2019-01-17T05:58:20.608Z,3.86
2019-01-17T05:59:31.595Z,3.89
2019-01-17T06:00:41.654Z,3.93
2019-01-17T06:01:51.455Z,3.85
2019-01-17T06:03:01.521Z,3.92
2019-01-17T06:04:11.586Z,3.86
2019-01-17T06:05:21.640Z,3.86
2019-01-17T06:06:37.958Z,3.97
2019-01-17T06:07:47.765Z,3.96
2019-01-17T06:08:57.853Z,3.97
2019-01-17T06:10:10.647Z,4
2019-01-17T06:11:20.705Z,4.1
2019-01-17T06:12:30.733Z,4.14
2019-01-17T06:13:40.832Z,4.1
2019-01-17T06:14:50.885Z,4.17
2019-01-17T06:16:02.354Z,4.2
2019-01-17T06:17:12.181Z,4.21
2019-01-17T06:18:22.246Z,4.26
2019-01-17T06:19:32.063Z,4.22
2019-01-17T06:20:42.139Z,4.22
2019-01-17T06:21:51.942Z,4.21
2019-01-17T06:23:02.034Z,4.28
2019-01-17T06:24:12.081Z,4.21
2019-01-17T06:25:30.401Z,4.18
2019-01-17T06:26:40.446Z,4.18
2019-01-17T06:27:50.490Z,4.32
2019-01-17T06:29:03.032Z,4.38
2019-01-17T06:30:13.085Z,4.28
2019-01-17T06:31:23.146Z,4.21
2019-01-17T06:32:32.934Z,4.24
2019-01-17T06:33:42.972Z,4.2
2019-01-17T06:34:52.795Z,4.21
2019-01-17T06:36:02.844Z,4.28
2019-01-17T06:37:12.644Z,4.15
2019-01-17T06:38:22.686Z,4.24
2019-01-17T06:39:32.474Z,4.3
2019-01-17T06:40:42.519Z,4.24
2019-01-17T06:41:52.567Z,4.29
2019-01-17T06:43:02.118Z,4.26
2019-01-17T06:44:11.906Z,4.26
2019-01-17T06:45:27.833Z,4.2
2019-01-17T06:46:37.674Z,4.26
2019-01-17T06:47:47.458Z,4.21
2019-01-17T06:48:57.515Z,4.2
2019-01-17T06:50:07.553Z,4.15
2019-01-17T06:51:17.100Z,4.2
2019-01-17T06:52:27.193Z,4.22
2019-01-17T06:53:37.253Z,4.2
2019-01-17T06:54:47.300Z,4.29
2019-01-17T06:55:57.365Z,4.28
2019-01-17T06:57:07.406Z,4.32
2019-01-17T06:58:17.510Z,4.44
2019-01-17T06:59:27.549Z,4.4
2019-01-17T07:00:37.668Z,4.44
2019-01-17T07:01:47.740Z,4.38
2019-01-17T07:02:57.792Z,4.47
2019-01-17T07:04:07.929Z,4.51
2019-01-17T07:05:17.975Z,4.5
2019-01-17T07:06:28.224Z,4.48
2019-01-17T07:07:38.294Z,4.58
2019-01-17T07:08:48.337Z,4.75
2019-01-17T07:09:58.460Z,4.69
2019-01-17T07:11:10.709Z,4.74
2019-01-17T07:12:20.494Z,4.76
2019-01-17T07:13:30.288Z,4.84
2019-01-17T07:14:40.082Z,4.84
2019-01-17T07:15:50.136Z,5
2019-01-17T07:17:00.308Z,5.02
2019-01-17T07:18:10.091Z,5.05
2019-01-17T07:19:20.136Z,5.15
2019-01-17T07:20:30.187Z,5.09
2019-01-17T07:21:39.976Z,5.23
2019-01-17T07:22:50.021Z,5.15
2019-01-17T07:24:00.058Z,5.26
2019-01-17T07:25:10.111Z,5.31
2019-01-17T07:26:20.151Z,5.34
2019-01-17T07:27:29.940Z,5.33
2019-01-17T07:28:39.730Z,5.34
2019-01-17T07:29:49.811Z,5.42
2019-01-17T07:30:59.598Z,5.52
2019-01-17T07:32:09.641Z,5.62
2019-01-17T07:33:19.667Z,5.55
2019-01-17T07:34:29.717Z,5.6
2019-01-17T07:35:39.760Z,5.69
2019-01-17T07:36:49.807Z,5.62
2019-01-17T07:37:59.335Z,5.66
2019-01-17T07:39:09.562Z,5.73
2019-01-17T07:40:19.598Z,5.78
2019-01-17T07:41:29.654Z,5.88
2019-01-17T07:42:39.712Z,5.88
2019-01-17T07:43:49.763Z,5.88
2019-01-17T07:44:59.807Z,5.88
2019-01-17T07:46:09.624Z,5.91
2019-01-17T07:47:19.769Z,5.91
2019-01-17T07:48:29.804Z,6.05
2019-01-17T07:49:39.953Z,6.09
2019-01-17T07:50:49.770Z,6.31
2019-01-17T07:51:59.814Z,6.33
2019-01-17T07:53:09.865Z,6.49
2019-01-17T07:54:19.924Z,6.54
2019-01-17T07:55:29.966Z,6.58
2019-01-17T07:56:40.345Z,6.62
2019-01-17T07:57:50.389Z,6.67
2019-01-17T07:59:00.441Z,6.64
2019-01-17T08:00:10.683Z,6.78
2019-01-17T08:01:20.870Z,6.73
2019-01-17T08:02:31.024Z,6.65
2019-01-17T08:03:40.819Z,6.75
2019-01-17T08:04:50.663Z,6.62
2019-01-17T08:06:00.709Z,6.73
2019-01-17T08:07:10.763Z,6.78
2019-01-17T08:08:20.808Z,6.82
2019-01-17T08:09:30.611Z,6.83
2019-01-17T08:10:40.717Z,6.86
2019-01-17T08:11:50.757Z,6.82
2019-01-17T08:13:00.789Z,6.86
2019-01-17T08:14:10.894Z,6.82
2019-01-17T08:15:20.934Z,6.85
2019-01-17T08:16:30.726Z,6.83
2019-01-17T08:17:40.544Z,6.83
2019-01-17T08:18:50.606Z,6.86
2019-01-17T08:20:01.332Z,6.79
2019-01-17T08:21:11.164Z,6.9
2019-01-17T08:22:21.239Z,6.83
2019-01-17T08:23:37.124Z,6.82
2019-01-17T08:24:47.473Z,6.88
2019-01-17T08:25:59.264Z,6.93
2019-01-17T08:27:09.586Z,6.95
2019-01-17T08:28:19.624Z,6.93
2019-01-17T08:29:29.730Z,6.91
2019-01-17T08:30:39.798Z,6.94
2019-01-17T08:31:50.134Z,6.95
2019-01-17T08:33:00.359Z,7.04
2019-01-17T08:34:11.049Z,6.91
2019-01-17T08:35:20.858Z,7.09
2019-01-17T08:36:30.910Z,7.09
2019-01-17T08:37:40.984Z,7.13
2019-01-17T08:38:51.174Z,7.03
2019-01-17T08:40:01.081Z,6.95
2019-01-17T08:41:11.150Z,7.01
2019-01-17T08:42:21.211Z,7.11
2019-01-17T08:43:31.333Z,7.09
2019-01-17T08:44:41.414Z,7.12
2019-01-17T08:45:51.224Z,7.16
2019-01-17T08:47:01.236Z,7.22
2019-01-17T08:48:11.516Z,7.74
2019-01-17T08:49:21.391Z,8.19
2019-01-17T08:50:31.191Z,8.43
2019-01-17T08:51:41.001Z,8.92
2019-01-17T08:52:51.065Z,9.21
2019-01-17T08:54:01.331Z,9.5
2019-01-17T08:55:11.138Z,9.62
2019-01-17T08:56:21.219Z,9.78
2019-01-17T08:57:31.259Z,10.1
2019-01-17T08:58:41.334Z,9.84
2019-01-17T08:59:51.405Z,9.89
2019-01-17T09:01:01.755Z,10.63
2019-01-17T09:02:11.820Z,11.1
2019-01-17T09:03:21.691Z,11.03
2019-01-17T09:04:32.006Z,10.87
2019-01-17T09:05:42.067Z,10.63
2019-01-17T09:06:52.210Z,10.51
2019-01-17T09:08:03.511Z,10.38
2019-01-17T09:09:13.638Z,10.28
2019-01-17T09:10:23.808Z,10.18
2019-01-17T09:11:33.883Z,10.03
2019-01-17T09:12:43.952Z,10.03
2019-01-17T09:13:54.014Z,10.08
2019-01-17T09:15:04.086Z,10.26
2019-01-17T09:16:14.148Z,10.17
2019-01-17T09:17:24.581Z,10.32
2019-01-17T09:18:34.413Z,10.35
2019-01-17T09:19:44.511Z,10.39
2019-01-17T09:20:54.598Z,10.66
2019-01-17T09:22:04.427Z,11.3
2019-01-17T09:23:14.523Z,11.34
2019-01-17T09:24:24.583Z,11.56
2019-01-17T09:25:34.665Z,11.78
2019-01-17T09:26:44.790Z,12.23
2019-01-17T09:27:54.919Z,12.89
2019-01-17T09:29:08.133Z,13.75
2019-01-17T09:30:18.255Z,14.08
2019-01-17T09:31:28.590Z,14.51
2019-01-17T09:32:38.897Z,15.1
2019-01-17T09:33:48.968Z,15.45
2019-01-17T09:34:59.073Z,15.45
2019-01-17T09:36:09.193Z,15.41
2019-01-17T09:37:19.009Z,15.75
2019-01-17T09:38:29.110Z,16.25
2019-01-17T09:39:39.168Z,16.07
2019-01-17T09:40:48.993Z,15.59
2019-01-17T09:41:58.906Z,15.75
2019-01-17T09:43:09.020Z,16.4
2019-01-17T09:44:18.832Z,17.06
2019-01-17T09:45:28.966Z,16.8
2019-01-17T09:46:39.054Z,16.37
2019-01-17T09:47:49.125Z,15.92
2019-01-17T09:48:58.948Z,15.6
2019-01-17T09:50:11.667Z,15.52
2019-01-17T09:51:21.786Z,15.35
2019-01-17T09:52:31.881Z,15.27
2019-01-17T09:53:41.972Z,15.34
2019-01-17T09:54:52.088Z,15.25
2019-01-17T09:56:02.139Z,15.26
2019-01-17T09:57:14.390Z,15.3
2019-01-17T09:58:24.494Z,15.35
2019-01-17T09:59:34.630Z,15.37
2019-01-17T10:00:44.699Z,15.3
2019-01-17T10:01:54.787Z,15.43
2019-01-17T10:03:04.580Z,15.49
2019-01-17T10:04:14.669Z,15.45
2019-01-17T10:05:24.224Z,15.33
2019-01-17T10:06:34.046Z,15.25
2019-01-17T10:07:44.173Z,15.08
2019-01-17T10:08:55.655Z,14.98
2019-01-17T10:10:08.364Z,14.9
2019-01-17T10:11:18.522Z,14.86
2019-01-17T10:12:28.328Z,14.85
2019-01-17T10:13:38.390Z,14.69
2019-01-17T10:14:49.066Z,14.69
2019-01-17T10:15:59.362Z,14.75
2019-01-17T10:17:09.497Z,14.59
2019-01-17T10:18:19.899Z,14.46
2019-01-17T10:19:29.967Z,14.36
2019-01-17T10:20:40.271Z,14.24
2019-01-17T10:21:50.111Z,14.16
2019-01-17T10:23:00.339Z,14.16
2019-01-17T10:24:10.459Z,14.08
2019-01-17T10:25:20.542Z,14.01
2019-01-17T10:26:30.149Z,13.93
2019-01-17T10:27:40.201Z,13.91
2019-01-17T10:28:50.235Z,13.91
2019-01-17T10:30:02.229Z,13.93
2019-01-17T10:31:12.346Z,13.9
2019-01-17T10:32:22.151Z,13.94
2019-01-17T10:33:31.969Z,13.91
2019-01-17T10:34:42.054Z,13.95
2019-01-17T10:35:52.108Z,13.95
2019-01-17T10:37:03.632Z,13.91
2019-01-17T10:38:13.701Z,13.91
2019-01-17T10:39:23.760Z,13.94
2019-01-17T10:40:33.925Z,13.99
2019-01-17T10:41:44.220Z,13.95
2019-01-17T10:42:54.028Z,13.94
2019-01-17T10:44:05.094Z,13.99
2019-01-17T10:45:15.170Z,14.06
2019-01-17T10:46:25.246Z,14.33
2019-01-17T10:47:35.087Z,14.59
2019-01-17T10:48:44.952Z,14.77
2019-01-17T10:49:55.041Z,14.87
2019-01-17T10:51:05.142Z,15.18
2019-01-17T10:52:14.951Z,15.08
2019-01-17T10:53:25.141Z,15.1
2019-01-17T10:54:35.228Z,15.15
2019-01-17T10:55:45.304Z,15.1
2019-01-17T10:56:55.362Z,15.1
2019-01-17T10:58:05.495Z,15.01
2019-01-17T10:59:15.645Z,14.98
2019-01-17T11:00:25.863Z,14.87
2019-01-17T11:01:35.924Z,14.79
2019-01-17T11:02:45.506Z,14.77
2019-01-17T11:03:55.621Z,14.79
2019-01-17T11:05:05.443Z,14.79
2019-01-17T11:06:15.500Z,14.77
2019-01-17T11:07:25.555Z,14.64
2019-01-17T11:08:35.404Z,14.7
2019-01-17T11:09:45.578Z,14.66
2019-01-17T11:10:55.654Z,14.59
2019-01-17T11:12:05.456Z,14.51
2019-01-17T11:13:15.568Z,14.52
2019-01-17T11:14:25.629Z,14.42
2019-01-17T11:15:36.030Z,14.39
2019-01-17T11:16:45.831Z,14.33
2019-01-17T11:17:55.996Z,14.34
2019-01-17T11:19:08.808Z,14.26
2019-01-17T11:20:18.613Z,14.24
2019-01-17T11:21:28.818Z,14.28
2019-01-17T11:22:38.647Z,14.26
2019-01-17T11:23:48.705Z,14.31
2019-01-17T11:24:58.878Z,14.27
2019-01-17T11:26:09.864Z,14.33
2019-01-17T11:27:19.422Z,14.38
2019-01-17T11:28:29.895Z,14.44
2019-01-17T11:29:39.968Z,14.51
2019-01-17T11:30:50.026Z,14.46
2019-01-17T11:32:00.078Z,14.52
2019-01-17T11:33:10.602Z,14.51
2019-01-17T11:34:20.432Z,14.51
2019-01-17T11:35:30.733Z,14.51
2019-01-17T11:36:40.793Z,14.53
2019-01-17T11:37:50.847Z,14.57
2019-01-17T11:39:00.955Z,14.57
2019-01-17T11:40:11.130Z,14.57
2019-01-17T11:41:20.949Z,14.59
2019-01-17T11:42:31.010Z,14.59
2019-01-17T11:43:41.081Z,14.63
2019-01-17T11:44:50.876Z,14.67
2019-01-17T11:46:01.191Z,14.69
2019-01-17T11:47:11.290Z,14.83
2019-01-17T11:48:21.085Z,14.9
2019-01-17T11:49:31.214Z,14.9
2019-01-17T11:50:41.346Z,14.9
2019-01-17T11:51:50.893Z,14.93
2019-01-17T11:53:00.710Z,14.87
2019-01-17T11:54:10.564Z,14.86
2019-01-17T11:55:20.622Z,14.98
2019-01-17T11:56:30.994Z,14.89
2019-01-17T11:57:46.367Z,14.89
2019-01-17T11:59:02.643Z,14.9
2019-01-17T12:00:13.162Z,15.04
2019-01-17T12:01:23.777Z,15.01
2019-01-17T12:02:38.968Z,15.05
2019-01-17T12:03:48.954Z,15.1
2019-01-17T12:04:58.761Z,15.13
2019-01-17T12:06:09.343Z,15.1
2019-01-17T12:07:19.208Z,15.1
2019-01-17T12:08:29.988Z,15.12
2019-01-17T12:09:40.681Z,15.13
2019-01-17T12:10:50.496Z,15.25
2019-01-17T12:12:01.381Z,15.3
2019-01-17T12:13:17.232Z,15.27
2019-01-17T12:14:27.292Z,15.3
2019-01-17T12:15:37.378Z,15.3
2019-01-17T12:16:47.458Z,15.4
2019-01-17T12:17:57.760Z,15.52
2019-01-17T12:19:07.986Z,15.53
2019-01-17T12:20:18.086Z,15.41
2019-01-17T12:21:28.146Z,15.52
2019-01-17T12:22:37.983Z,15.58
2019-01-17T12:23:48.059Z,15.62
2019-01-17T12:24:58.175Z,15.62
2019-01-17T12:26:09.139Z,15.71
2019-01-17T12:27:19.315Z,15.77
2019-01-17T12:28:29.502Z,15.81
2019-01-17T12:29:39.565Z,15.7
2019-01-17T12:30:49.383Z,15.63
2019-01-17T12:31:59.460Z,15.65
2019-01-17T12:33:09.771Z,15.7
2019-01-17T12:34:19.875Z,15.65
2019-01-17T12:35:29.730Z,15.75
2019-01-17T12:36:39.822Z,15.68
2019-01-17T12:37:50.027Z,15.77
2019-01-17T12:39:00.100Z,15.83
2019-01-17T12:40:11.196Z,15.77
2019-01-17T12:41:21.387Z,15.77
2019-01-17T12:42:30.943Z,15.84
2019-01-17T12:43:41.245Z,15.86
2019-01-17T12:44:51.307Z,15.8
2019-01-17T12:46:01.359Z,15.84
2019-01-17T12:47:11.237Z,15.81
2019-01-17T12:48:21.045Z,15.89
2019-01-17T12:49:31.201Z,15.95
2019-01-17T12:50:41.270Z,15.98
2019-01-17T12:51:51.131Z,16
2019-01-17T12:53:01.485Z,15.95
2019-01-17T12:54:11.567Z,16.04
2019-01-17T12:55:21.638Z,15.92
2019-01-17T12:56:31.686Z,15.88
2019-01-17T12:57:41.795Z,15.86
2019-01-17T12:58:51.858Z,15.84
2019-01-17T13:00:07.649Z,15.83
2019-01-17T13:01:18.644Z,15.91
2019-01-17T13:02:28.442Z,15.84
2019-01-17T13:03:38.799Z,15.96
2019-01-17T13:04:48.886Z,15.91
2019-01-17T13:05:58.766Z,15.96
2019-01-17T13:07:09.693Z,15.93
2019-01-17T13:08:20.013Z,15.92
2019-01-17T13:09:30.153Z,15.96
2019-01-17T13:10:40.218Z,15.91
2019-01-17T13:11:50.288Z,15.86
2019-01-17T13:13:00.352Z,15.91
2019-01-17T13:14:10.435Z,15.92
2019-01-17T13:15:20.973Z,15.88
2019-01-17T13:16:31.042Z,15.84
2019-01-17T13:17:41.093Z,15.73
2019-01-17T13:18:51.380Z,15.73
2019-01-17T13:20:02.454Z,15.7
2019-01-17T13:21:12.847Z,15.65
2019-01-17T13:22:22.943Z,15.75
2019-01-17T13:23:32.764Z,15.63
2019-01-17T13:24:42.831Z,15.67
2019-01-17T13:25:52.886Z,15.7
2019-01-17T13:27:05.992Z,15.65
2019-01-17T13:28:15.827Z,15.7
2019-01-17T13:29:25.926Z,15.65
2019-01-17T13:30:36.097Z,15.65
2019-01-17T13:31:46.367Z,15.7
2019-01-17T13:32:56.428Z,15.65
2019-01-17T13:34:06.448Z,15.63
2019-01-17T13:35:16.605Z,15.65
2019-01-17T13:36:26.935Z,15.62
2019-01-17T13:37:37.046Z,15.63
2019-01-17T13:38:47.447Z,15.65
2019-01-17T13:39:57.308Z,15.56
2019-01-17T13:41:07.367Z,15.55
2019-01-17T13:42:23.282Z,15.6
2019-01-17T13:43:33.112Z,15.59
2019-01-17T13:44:43.185Z,15.55
2019-01-17T13:45:53.313Z,15.51
2019-01-17T13:47:03.143Z,15.45
2019-01-17T13:48:13.228Z,15.47
2019-01-17T13:49:23.316Z,15.47
2019-01-17T13:50:34.447Z,15.33
2019-01-17T13:51:44.569Z,15.37
2019-01-17T13:52:54.618Z,15.37
2019-01-17T13:54:04.481Z,15.3
2019-01-17T13:55:14.559Z,15.27
2019-01-17T13:56:24.673Z,15.26
2019-01-17T13:57:34.744Z,15.35
2019-01-17T13:58:44.559Z,15.22
2019-01-17T13:59:54.609Z,15.27
2019-01-17T14:01:04.720Z,15.19
2019-01-17T14:02:14.846Z,15.13
2019-01-17T14:03:24.899Z,15.1
2019-01-17T14:04:34.718Z,15.04
2019-01-17T14:05:44.905Z,15.04
2019-01-17T14:06:54.982Z,15.01
2019-01-17T14:08:08.121Z,15
2019-01-17T14:09:18.242Z,14.95
2019-01-17T14:10:28.364Z,14.89
2019-01-17T14:11:38.489Z,14.89
2019-01-17T14:12:48.573Z,14.86
2019-01-17T14:13:58.680Z,14.79
2019-01-17T14:15:08.736Z,14.69
2019-01-17T14:16:18.863Z,14.64
2019-01-17T14:17:28.929Z,14.66
2019-01-17T14:18:39.011Z,14.6
2019-01-17T14:19:49.084Z,14.67
2019-01-17T14:20:59.707Z,14.74
2019-01-17T14:22:09.782Z,14.51
2019-01-17T14:23:19.968Z,14.51
2019-01-17T14:24:29.826Z,14.33
2019-01-17T14:25:39.912Z,14.3
2019-01-17T14:26:49.991Z,14.36
2019-01-17T14:28:00.095Z,14.3
2019-01-17T14:29:10.757Z,14.26
2019-01-17T14:30:20.570Z,14.28
2019-01-17T14:31:30.620Z,14.19
2019-01-17T14:32:41.057Z,14.15
2019-01-17T14:33:51.121Z,14.19
2019-01-17T14:35:01.536Z,14.13
2019-01-17T14:36:11.594Z,14.15
2019-01-17T14:37:21.657Z,14.15
2019-01-17T14:38:31.920Z,14.15
2019-01-17T14:39:41.998Z,14.09
2019-01-17T14:40:52.122Z,14.02
2019-01-17T14:42:02.190Z,13.94
2019-01-17T14:43:12.313Z,13.94
2019-01-17T14:44:22.409Z,13.78
2019-01-17T14:45:32.502Z,13.72
2019-01-17T14:46:42.326Z,13.65
2019-01-17T14:47:52.421Z,13.51
2019-01-17T14:49:02.219Z,13.58
2019-01-17T14:50:12.049Z,13.47
2019-01-17T14:51:21.914Z,13.57
2019-01-17T14:52:32.051Z,13.39
2019-01-17T14:53:42.127Z,13.35
2019-01-17T14:54:52.213Z,13.29
2019-01-17T14:56:03.335Z,13.21
2019-01-17T14:57:13.397Z,13.13
2019-01-17T14:58:28.410Z,12.96
2019-01-17T14:59:38.466Z,12.99
2019-01-17T15:00:48.778Z,12.88
2019-01-17T15:01:58.850Z,12.81
2019-01-17T15:03:09.144Z,12.76
2019-01-17T15:04:19.227Z,12.63
2019-01-17T15:05:29.294Z,12.59
2019-01-17T15:06:39.377Z,12.59
2019-01-17T15:07:49.459Z,12.56
2019-01-17T15:08:59.544Z,12.47
2019-01-17T15:10:09.694Z,12.47
2019-01-17T15:11:19.791Z,12.45
2019-01-17T15:12:29.601Z,12.36
2019-01-17T15:13:39.422Z,12.29
2019-01-17T15:14:49.504Z,12.2
2019-01-17T15:15:59.380Z,12.22
2019-01-17T15:17:09.444Z,12.26
2019-01-17T15:18:19.539Z,12.19
2019-01-17T15:19:29.617Z,12.16
2019-01-17T15:20:39.696Z,12.15
2019-01-17T15:21:49.814Z,12.05
2019-01-17T15:22:59.939Z,12.07
2019-01-17T15:24:10.780Z,11.95
2019-01-17T15:25:20.854Z,11.91
2019-01-17T15:26:30.675Z,11.95
2019-01-17T15:27:40.954Z,11.89
2019-01-17T15:28:51.044Z,11.85
2019-01-17T15:30:01.121Z,11.81
2019-01-17T15:31:11.197Z,11.78
2019-01-17T15:32:21.249Z,11.79
2019-01-17T15:33:31.592Z,11.78
2019-01-17T15:34:41.744Z,11.78
2019-01-17T15:35:51.664Z,11.71
2019-01-17T15:37:01.478Z,11.61
2019-01-17T15:38:11.775Z,11.57
2019-01-17T15:39:21.851Z,11.46
2019-01-17T15:40:32.019Z,11.52
2019-01-17T15:41:42.145Z,11.48
2019-01-17T15:42:52.267Z,11.38
2019-01-17T15:44:02.079Z,11.39
2019-01-17T15:45:12.197Z,11.26
2019-01-17T15:46:22.397Z,11.28
2019-01-17T15:47:32.486Z,11.26
2019-01-17T15:48:42.771Z,11.24
2019-01-17T15:49:52.900Z,11.15
2019-01-17T15:51:03.099Z,11.16
2019-01-17T15:52:13.166Z,11.08
2019-01-17T15:53:23.427Z,11
2019-01-17T15:54:33.234Z,10.94